Time;durP1;ratioP1;P1;durP2;ratioP2;P2;SDS_P1;SDS_P2;PMS_P1;PMS_P2;Temp;Humidity;BMP_temperature;BMP_pressure;BME280_temperature;BME280_humidity;BME280_pressure;Samples;Min_cycle;Max_cycle;Signal;HPM_P1;HPM_P2
2022/02/09 00:00:36;;;;;;;6.70;3.70;;;;;;;6.02;90.97;100892.64;2148637;82;20971;-84
2022/02/09 00:03:44;;;;;;;5.37;3.80;;;;;;;6.03;90.93;100897.45;2155507;82;21005;-83
2022/02/09 00:09:55;;;;;;;5.70;3.72;;;;;;;6.03;91.00;100902.24;2145909;82;21007;-80
2022/02/09 00:13:19;;;;;;;4.15;2.95;;;;;;;6.02;91.10;100908.45;2151228;82;21497;-83
2022/02/09 00:16:20;;;;;;;4.87;3.70;;;;;;;6.04;91.17;100905.70;2146270;82;20979;-81
2022/02/09 00:19:23;;;;;;;6.58;4.12;;;;;;;6.04;91.14;100905.70;2146748;81;21046;-82
2022/02/09 00:32:29;;;;;;;4.17;3.25;;;;;;;6.04;91.18;100920.20;2148713;82;21018;-84
2022/02/09 00:38:45;;;;;;;3.35;2.70;;;;;;;6.02;91.40;100932.16;2148615;82;21077;-83
2022/02/09 00:45:18;;;;;;;4.70;2.58;;;;;;;6.05;91.31;100944.27;2145712;82;21060;-86
2022/02/09 01:11:35;;;;;;;2.87;2.00;;;;;;;6.07;91.46;100963.44;2146945;82;20987;-84
2022/02/09 01:57:01;;;;;;;5.92;4.53;;;;;;;6.17;91.68;100955.20;2150286;82;21002;-84
2022/02/09 02:00:07;;;;;;;5.80;4.03;;;;;;;6.17;91.65;100958.32;2151001;82;21045;-86
2022/02/09 02:03:08;;;;;;;4.30;3.90;;;;;;;6.19;91.75;100956.38;2149539;82;21045;-83
2022/02/09 02:06:13;;;;;;;6.08;3.77;;;;;;;6.19;91.75;100957.22;2145829;82;21094;-82
2022/02/09 02:09:15;;;;;;;6.75;3.80;;;;;;;6.22;91.92;100956.14;2146770;82;20990;-83
2022/02/09 02:12:20;;;;;;;9.28;4.45;;;;;;;6.23;91.78;100955.20;2149641;82;21092;-83
2022/02/09 02:15:54;;;;;;;7.60;4.10;;;;;;;6.24;91.92;100946.33;2153617;82;21024;-81
2022/02/09 02:18:32;;;;;;;9.15;4.53;;;;;;;6.25;91.78;100950.63;2148793;82;21023;-83
2022/02/09 02:21:55;;;;;;;6.10;3.77;;;;;;;6.24;91.95;100952.92;2151922;82;20987;-82
2022/02/09 02:38:07;;;;;;;4.08;3.33;;;;;;;6.29;91.91;100956.88;2152943;82;21475;-82
2022/02/09 02:47:24;;;;;;;4.47;3.80;;;;;;;6.36;91.68;100949.32;2148726;82;21022;-82
2022/02/09 03:13:03;;;;;;;7.42;4.30;;;;;;;6.41;91.35;100942.39;2153173;82;21046;-82
2022/02/09 03:16:13;;;;;;;9.45;4.60;;;;;;;6.41;91.36;100933.16;2143927;82;21017;-84
2022/02/09 03:22:56;;;;;;;4.87;4.35;;;;;;;6.41;91.38;100941.07;2151673;82;21621;-80
2022/02/09 03:26:10;;;;;;;5.42;4.33;;;;;;;6.41;91.35;100939.27;2144253;82;21513;-84
2022/02/09 03:49:30;;;;;;;9.95;5.67;;;;;;;6.45;90.98;100960.98;2151929;82;21582;-83
2022/02/09 03:58:54;;;;;;;7.60;6.17;;;;;;;6.40;91.05;100968.40;2145377;82;21030;-83
2022/02/09 04:01:55;;;;;;;11.65;6.20;;;;;;;6.38;91.11;100965.87;2152223;82;21053;-79
2022/02/09 04:04:57;;;;;;;8.35;6.58;;;;;;;6.38;91.08;100972.45;2144270;82;21021;-82
2022/02/09 04:08:00;;;;;;;7.45;5.75;;;;;;;6.39;91.07;100975.93;2145466;82;21545;-83
2022/02/09 04:11:55;;;;;;;9.35;5.85;;;;;;;6.39;91.07;100970.66;2148599;82;21350;-83
2022/02/09 04:14:13;;;;;;;8.35;5.55;;;;;;;6.37;91.11;100973.42;2127648;82;21050;-83
2022/02/09 04:22:21;;;;;;;9.48;4.87;;;;;;;6.36;91.25;100969.58;2150725;82;21010;-80
2022/02/09 04:40:00;;;;;;;6.60;4.90;;;;;;;6.29;91.53;100957.36;2155884;82;20995;-82
2022/02/09 04:50:03;;;;;;;7.87;4.42;;;;;;;6.27;91.53;100952.68;2146868;82;21101;-84
2022/02/09 04:53:21;;;;;;;6.42;4.72;;;;;;;6.28;91.75;100955.21;2145119;82;21584;-83
2022/02/09 04:56:22;;;;;;;6.35;4.25;;;;;;;6.26;91.65;100949.70;2145819;82;21054;-81
2022/02/09 04:59:22;;;;;;;5.67;4.50;;;;;;;6.26;91.76;100949.70;2143868;82;21058;-82
2022/02/09 05:19:09;;;;;;;5.30;4.35;;;;;;;6.22;92.07;100958.33;2148726;82;22270;-80
2022/02/09 05:31:07;;;;;;;11.15;6.70;;;;;;;6.22;92.17;100967.55;2150028;82;21010;-82
2022/02/09 05:34:09;;;;;;;10.43;6.20;;;;;;;6.21;92.27;100965.85;2149070;82;21054;-82
2022/02/09 05:37:10;;;;;;;10.90;7.12;;;;;;;6.21;92.33;100956.63;2143842;82;21024;-82
2022/02/09 05:40:12;;;;;;;14.85;7.08;;;;;;;6.21;92.21;100959.27;2146794;82;20970;-81
2022/02/09 05:43:15;;;;;;;22.32;10.18;;;;;;;6.20;92.12;100958.91;2146984;82;21033;-84
2022/02/09 05:49:47;;;;;;;9.85;6.10;;;;;;;6.23;92.12;100967.06;2154149;81;21120;-84
2022/02/09 05:55:52;;;;;;;20.55;7.78;;;;;;;6.22;92.11;100967.55;2154648;82;20993;-80
2022/02/09 05:59:04;;;;;;;9.80;6.87;;;;;;;6.22;92.20;100975.45;2147922;82;20987;-82
2022/02/09 06:01:56;;;;;;;15.93;9.70;;;;;;;6.22;92.12;100977.23;2144789;82;21502;-81
2022/02/09 06:04:57;;;;;;;13.68;8.73;;;;;;;6.21;92.07;100979.03;2153859;82;20991;-86
2022/02/09 06:07:59;;;;;;;12.37;7.45;;;;;;;6.23;92.07;100981.08;2148762;82;21597;-84
2022/02/09 06:11:22;;;;;;;11.68;7.25;;;;;;;6.23;92.01;100982.39;2151643;82;21149;-80
2022/02/09 06:20:43;;;;;;;13.72;7.58;;;;;;;6.24;92.00;100997.23;2150990;82;21057;-83
2022/02/09 06:23:46;;;;;;;19.60;9.88;;;;;;;6.23;91.90;101007.44;2151507;82;21006;-83
2022/02/09 06:26:48;;;;;;;26.37;12.05;;;;;;;6.25;91.88;101009.94;2147714;82;21045;-80
2022/02/09 06:29:50;;;;;;;20.10;12.53;;;;;;;6.26;91.83;101010.31;2152049;82;21085;-84
2022/02/09 06:32:51;;;;;;;22.48;13.85;;;;;;;6.25;91.81;101006.84;2144295;82;21117;-84
2022/02/09 06:35:54;;;;;;;18.30;10.72;;;;;;;6.26;91.81;101004.56;2151959;82;20986;-84
2022/02/09 06:39:03;;;;;;;12.68;9.33;;;;;;;6.26;91.79;101007.20;2149951;82;21058;-84
2022/02/09 06:41:59;;;;;;;16.37;9.83;;;;;;;6.27;91.73;101008.86;2156184;81;21065;-82
2022/02/09 06:45:08;;;;;;;12.68;9.45;;;;;;;6.31;91.66;101004.67;2147584;82;21090;-83
2022/02/09 06:48:13;;;;;;;13.98;8.45;;;;;;;6.32;91.58;101000.61;2145491;82;21042;-85
2022/02/09 06:51:19;;;;;;;14.20;8.63;;;;;;;6.33;91.54;101008.03;2150095;82;20998;-81
2022/02/09 06:54:33;;;;;;;10.55;7.85;;;;;;;6.33;91.53;101010.19;2150720;82;21057;-84
2022/02/09 06:57:46;;;;;;;12.20;7.45;;;;;;;6.34;91.47;101007.94;2146914;82;21014;-84
2022/02/09 07:00:41;;;;;;;12.80;7.92;;;;;;;6.37;91.47;101013.45;2147073;81;21078;-87
2022/02/09 07:03:39;;;;;;;9.15;7.55;;;;;;;6.39;91.51;101022.92;2130445;82;21066;-83
2022/02/09 07:06:41;;;;;;;13.32;8.00;;;;;;;6.41;91.53;101020.16;2149816;82;20962;-81
2022/02/09 07:09:42;;;;;;;10.78;8.90;;;;;;;6.40;91.48;101017.17;2151976;82;21085;-82
2022/02/09 07:12:43;;;;;;;13.43;7.65;;;;;;;6.41;91.44;101021.47;2150127;82;20991;-82
2022/02/09 07:15:50;;;;;;;15.55;7.22;;;;;;;6.42;91.42;101025.78;2150006;82;20994;-84
2022/02/09 07:18:50;;;;;;;14.07;8.50;;;;;;;6.45;91.48;101018.98;2150912;82;21073;-79
2022/02/09 07:21:52;;;;;;;11.57;8.00;;;;;;;6.47;91.50;101015.72;2150603;82;21439;-81
2022/02/09 07:25:06;;;;;;;11.30;7.45;;;;;;;6.50;91.52;101012.39;2150635;82;21026;-81
2022/02/09 07:28:05;;;;;;;12.23;6.97;;;;;;;6.54;91.42;101011.67;2151353;82;22358;-80
2022/02/09 07:31:09;;;;;;;10.25;7.47;;;;;;;6.57;91.41;101010.59;2153441;82;21660;-82
2022/02/09 07:34:12;;;;;;;11.25;7.67;;;;;;;6.60;91.43;101012.51;2147920;82;21501;-81
2022/02/09 07:37:14;;;;;;;11.65;6.95;;;;;;;6.67;91.48;101012.41;2155087;82;21050;-81
2022/02/09 07:40:17;;;;;;;14.75;6.47;;;;;;;6.70;91.33;101008.20;2148999;81;20990;-78
2022/02/09 07:43:24;;;;;;;12.00;7.60;;;;;;;6.72;91.18;101012.02;2148895;82;20974;-77
2022/02/09 07:49:39;;;;;;;11.40;8.20;;;;;;;6.78;91.09;101025.21;2151997;82;21054;-81
2022/02/09 07:52:37;;;;;;;10.00;7.10;;;;;;;6.79;91.02;101012.41;2147590;82;21003;-82
2022/02/09 07:55:33;;;;;;;13.00;7.60;;;;;;;6.80;91.06;101012.27;2152261;82;21045;-77
2022/02/09 07:58:34;;;;;;;8.83;7.33;;;;;;;6.83;91.13;101012.51;2155789;82;21534;-80
2022/02/09 08:01:36;;;;;;;10.93;7.80;;;;;;;6.87;91.25;101009.52;2154135;82;20989;-80
2022/02/09 08:04:38;;;;;;;15.50;9.30;;;;;;;6.92;91.28;101011.28;2145574;82;21006;-81
2022/02/09 08:07:39;;;;;;;10.75;8.23;;;;;;;6.93;91.23;101009.52;2141837;82;21044;-78
2022/02/09 08:10:52;;;;;;;18.42;9.53;;;;;;;6.92;91.15;101007.81;2147409;82;21034;-81
2022/02/09 08:24:07;;;;;;;17.07;8.98;;;;;;;6.92;91.05;101014.41;2143069;82;21003;-81
2022/02/09 08:27:18;;;;;;;15.05;9.30;;;;;;;6.97;91.12;101010.94;2147078;82;21010;-82
2022/02/09 08:33:19;;;;;;;9.48;7.35;;;;;;;7.05;90.86;101005.06;2148984;82;21574;-81
2022/02/09 08:36:20;;;;;;;12.68;8.20;;;;;;;7.06;90.75;100999.64;2154604;82;21015;-80
2022/02/09 08:39:22;;;;;;;11.80;7.72;;;;;;;7.11;90.72;100997.48;2150366;82;20954;-79
2022/02/09 08:42:25;;;;;;;10.38;7.70;;;;;;;7.16;90.47;100995.31;2150178;82;21065;-80
2022/02/09 08:45:28;;;;;;;9.98;6.95;;;;;;;7.20;90.31;100990.62;2155151;82;21082;-80
2022/02/09 08:48:30;;;;;;;17.02;8.73;;;;;;;7.23;90.20;100987.73;2148357;82;20985;-81
2022/02/09 08:51:35;;;;;;;13.30;8.38;;;;;;;7.28;90.11;100993.48;2146351;82;20997;-81
2022/02/09 08:54:39;;;;;;;9.83;5.90;;;;;;;7.33;90.09;100986.52;2150438;82;21093;-80
2022/02/09 08:57:44;;;;;;;11.95;6.90;;;;;;;7.36;89.58;100991.06;2146619;82;21528;-82
2022/02/09 09:00:48;;;;;;;8.93;6.50;;;;;;;7.38;89.45;100981.70;2150759;82;20999;-81
2022/02/09 09:03:55;;;;;;;11.53;6.78;;;;;;;7.40;89.39;100988.55;2147245;82;20955;-78
2022/02/09 09:06:57;;;;;;;8.55;6.03;;;;;;;7.46;89.38;100987.20;2147226;82;21046;-81
2022/02/09 09:10:13;;;;;;;8.48;6.25;;;;;;;7.49;89.10;100986.09;2152943;82;21033;-82
2022/02/09 09:17:19;;;;;;;7.47;5.53;;;;;;;7.60;88.86;100976.80;2146769;82;21022;-80
2022/02/09 10:03:31;;;;;;;7.05;4.33;;;;;;;8.19;84.74;100969.63;2150640;82;21033;-80
2022/02/09 10:33:12;;;;;;;5.17;3.90;;;;;;;8.22;83.27;100980.44;2148439;82;21585;-82
2022/02/09 10:36:14;;;;;;;10.72;4.28;;;;;;;8.19;82.95;100974.09;2146433;82;21030;-80
2022/02/09 10:39:21;;;;;;;6.10;3.65;;;;;;;8.13;82.81;100969.33;2140655;82;21026;-82
2022/02/09 10:42:31;;;;;;;4.10;3.08;;;;;;;8.07;82.02;100972.84;2146723;82;21498;-80
2022/02/09 10:45:37;;;;;;;3.55;2.85;;;;;;;8.03;82.09;100977.20;2152803;81;21013;-82
2022/02/09 10:48:53;;;;;;;4.58;3.27;;;;;;;7.99;81.74;100973.96;2152029;82;21065;-82
2022/02/09 10:52:07;;;;;;;3.87;2.70;;;;;;;7.97;82.04;100983.84;2150326;82;21573;-83
2022/02/09 10:54:57;;;;;;;6.17;3.05;;;;;;;7.95;82.08;100985.77;2140195;82;21011;-80
2022/02/09 10:57:58;;;;;;;3.87;2.58;;;;;;;7.88;81.74;100984.59;2155124;82;21019;-80
2022/02/09 11:01:00;;;;;;;3.05;2.30;;;;;;;7.85;81.32;100971.19;2156882;82;21513;-80
2022/02/09 11:04:05;;;;;;;3.92;2.90;;;;;;;7.81;80.89;100968.91;2155249;82;21066;-82
2022/02/09 11:07:08;;;;;;;4.28;2.72;;;;;;;7.81;81.50;100971.56;2147582;82;21023;-82
2022/02/09 11:10:10;;;;;;;4.45;2.87;;;;;;;7.81;81.43;100962.31;2127111;82;21139;-85
2022/02/09 11:13:12;;;;;;;2.70;2.40;;;;;;;7.81;81.09;100962.31;2151103;82;20975;-83
2022/02/09 11:16:17;;;;;;;4.35;2.98;;;;;;;7.83;81.13;100968.31;2148159;82;21233;-84
2022/02/09 11:19:20;;;;;;;8.80;3.35;;;;;;;7.85;81.27;100970.32;2155011;82;21042;-83
2022/02/09 11:22:29;;;;;;;11.18;3.85;;;;;;;7.86;81.05;100965.41;2148058;82;20994;-84
2022/02/09 11:25:32;;;;;;;8.48;4.08;;;;;;;7.89;81.27;100967.80;2145119;82;21030;-86
2022/02/09 11:28:37;;;;;;;6.95;3.62;;;;;;;7.90;81.19;100972.09;2150578;82;21023;-81
2022/02/09 11:31:35;;;;;;;6.37;3.25;;;;;;;7.92;80.83;100964.06;2131757;82;21064;-83
2022/02/09 11:35:09;;;;;;;6.03;3.92;;;;;;;7.93;80.71;100969.69;2144303;82;21007;-83
2022/02/09 11:41:23;;;;;;;7.80;4.25;;;;;;;7.90;80.55;100965.50;2153340;82;21493;-83
2022/02/09 11:45:11;;;;;;;5.62;4.05;;;;;;;7.90;80.63;100959.37;2142351;82;21031;-83
2022/02/09 11:48:31;;;;;;;5.28;3.80;;;;;;;7.90;79.32;100948.31;2145684;81;21034;-80
2022/02/09 11:51:31;;;;;;;4.65;3.98;;;;;;;7.91;79.47;100952.63;2143227;82;20991;-82
2022/02/09 12:11:39;;;;;;;5.78;3.87;;;;;;;8.14;78.64;100959.09;2153425;82;21007;-79
2022/02/09 12:18:25;;;;;;;6.87;3.70;;;;;;;8.18;77.69;100944.17;2149358;82;21017;-81
2022/02/09 12:21:27;;;;;;;3.50;2.95;;;;;;;8.21;77.58;100948.36;2148120;82;21031;-81
2022/02/09 12:24:30;;;;;;;10.50;4.25;;;;;;;8.22;77.12;100942.96;2147447;82;21030;-81
2022/02/09 12:27:32;;;;;;;9.50;4.40;;;;;;;8.26;78.00;100943.03;2150022;82;21005;-80
2022/02/09 12:30:34;;;;;;;5.97;3.45;;;;;;;8.33;77.86;100935.89;2147776;82;21125;-82
2022/02/09 12:33:44;;;;;;;4.95;3.12;;;;;;;8.34;77.89;100941.06;2149325;82;21582;-82
2022/02/09 12:36:47;;;;;;;6.12;3.92;;;;;;;8.34;76.67;100934.45;2149933;82;21057;-81
2022/02/09 12:40:06;;;;;;;5.22;3.12;;;;;;;8.32;76.56;100933.73;2142293;82;21015;-81
2022/02/09 12:43:12;;;;;;;5.40;3.75;;;;;;;8.27;76.00;100938.09;2156137;82;21311;-80
2022/02/09 12:46:11;;;;;;;4.58;3.35;;;;;;;8.23;76.16;100929.25;2127047;82;21320;-77
2022/02/09 12:49:16;;;;;;;3.80;2.72;;;;;;;8.18;76.30;100937.56;2142030;82;21033;-78
2022/02/09 12:52:25;;;;;;;4.60;2.67;;;;;;;8.14;75.66;100940.59;2146224;82;21021;-80
2022/02/09 12:55:36;;;;;;;3.83;2.42;;;;;;;8.11;74.71;100931.14;2143906;82;21026;-82
2022/02/09 12:58:38;;;;;;;7.92;3.00;;;;;;;8.08;75.27;100939.30;2142073;82;21625;-80
2022/02/09 13:01:53;;;;;;;4.15;3.15;;;;;;;8.04;75.21;100942.70;2152244;81;21529;-78
2022/02/09 13:05:00;;;;;;;3.22;2.50;;;;;;;8.02;75.73;100945.95;2153316;82;20971;-80
2022/02/09 13:08:04;;;;;;;5.17;2.45;;;;;;;7.99;75.13;100942.25;2146436;82;21018;-79
2022/02/09 13:11:27;;;;;;;4.53;2.67;;;;;;;7.97;75.72;100948.17;2146085;82;21029;-78
2022/02/09 13:14:37;;;;;;;4.53;2.50;;;;;;;7.96;74.85;100937.72;2147615;82;21006;-77
2022/02/09 14:02:58;;;;;;;2.95;1.87;;;;;;;7.77;74.07;100897.47;2154079;82;21051;-80
2022/02/09 14:15:06;;;;;;;2.87;2.10;;;;;;;7.69;73.76;100894.66;2148544;80;21545;-80
2022/02/09 14:18:22;;;;;;;2.25;1.95;;;;;;;7.68;73.61;100896.93;2146824;80;21057;-79
2022/02/09 14:57:18;;;;;;;8.73;4.30;;;;;;;7.71;73.42;100899.31;2150739;82;21069;-80
2022/02/09 15:00:18;;;;;;;13.80;6.75;;;;;;;7.71;73.46;100896.67;2157100;80;21094;-80
2022/02/09 15:12:59;;;;;;;;;;;;;;;;;;;;;
2022/02/09 15:16:15;;;;;;;11.03;5.62;;;;;;;7.59;74.02;100894.58;2147858;80;20990;-79
2022/02/09 15:19:40;;;;;;;9.48;4.40;;;;;;;7.59;73.98;100890.13;2131952;82;21548;-81
2022/02/09 15:22:39;;;;;;;10.08;4.80;;;;;;;7.57;74.10;100886.80;2146175;82;21070;-82
2022/02/09 15:25:39;;;;;;;8.40;5.85;;;;;;;7.54;74.32;100884.39;2153078;81;21494;-81
2022/02/09 15:28:40;;;;;;;11.97;5.15;;;;;;;7.51;74.38;100886.45;2152248;82;21014;-80
2022/02/09 15:31:51;;;;;;;9.30;4.97;;;;;;;7.47;74.42;100877.13;2154051;82;21078;-81
2022/02/09 15:34:56;;;;;;;8.48;5.55;;;;;;;7.45;74.51;100879.88;2151031;81;21034;-80
2022/02/09 15:38:01;;;;;;;9.65;5.10;;;;;;;7.43;74.53;100869.09;2148840;82;21027;-81
2022/02/09 15:41:18;;;;;;;11.10;6.15;;;;;;;7.40;74.36;100882.92;2145075;82;21027;-81
2022/02/09 15:58:01;;;;;;;8.63;5.40;;;;;;;7.26;74.45;100873.13;2148728;82;21073;-82
2022/02/09 16:08:12;;;;;;;13.43;8.08;;;;;;;7.19;74.60;100881.56;2147801;82;21015;-82
2022/02/09 16:23:36;;;;;;;13.13;8.23;;;;;;;7.14;74.88;100884.22;2146628;82;21041;-85
2022/02/09 16:33:16;;;;;;;14.60;7.45;;;;;;;6.96;74.98;100895.81;2147643;82;21492;-79
2022/02/09 16:37:10;;;;;;;21.15;10.05;;;;;;;6.93;75.01;100901.34;2145261;82;21114;-80
2022/02/09 16:46:23;;;;;;;13.93;7.55;;;;;;;6.86;75.18;100908.05;2155237;82;21117;-85
2022/02/09 16:49:31;;;;;;;10.18;6.42;;;;;;;6.81;75.26;100916.81;2147673;82;21002;-84
2022/02/09 17:11:12;;;;;;;9.98;6.03;;;;;;;6.58;75.55;100908.10;2147857;82;21043;-83
2022/02/09 17:21:33;;;;;;;17.52;10.65;;;;;;;6.44;75.95;100906.55;2145162;82;21045;-83
2022/02/09 17:24:35;;;;;;;12.75;9.00;;;;;;;6.42;76.00;100915.92;2153283;82;21019;-83
2022/02/09 17:27:37;;;;;;;12.98;7.95;;;;;;;6.40;76.10;100908.59;2141745;82;21018;-81
2022/02/09 17:37:27;;;;;;;20.52;11.43;;;;;;;6.37;76.19;100902.73;2148515;82;21031;-84
2022/02/09 17:53:32;;;;;;;16.87;9.38;;;;;;;6.27;76.37;100896.84;2153457;82;21000;-83
2022/02/09 17:56:46;;;;;;;18.27;10.38;;;;;;;6.28;76.38;100899.86;2155670;82;21502;-81
2022/02/09 17:59:45;;;;;;;22.95;11.48;;;;;;;6.29;76.33;100901.53;2146816;82;21544;-84
2022/02/09 18:02:41;;;;;;;26.37;14.53;;;;;;;6.31;76.33;100902.74;2155582;82;21033;-82
2022/02/09 18:05:48;;;;;;;26.02;13.48;;;;;;;6.29;76.40;100906.80;2149241;82;21038;-82
2022/02/09 18:12:05;;;;;;;16.15;8.90;;;;;;;6.26;76.39;100912.31;2145641;82;21046;-84
2022/02/09 18:15:25;;;;;;;22.93;11.22;;;;;;;6.27;76.40;100903.44;2149052;82;20987;-82
2022/02/09 18:28:49;;;;;;;19.50;11.30;;;;;;;6.25;76.57;100901.42;2150640;82;21622;-85
2022/02/09 18:44:07;;;;;;;22.22;13.32;;;;;;;6.18;76.67;100917.34;2149197;82;20976;-82
2022/02/09 18:57:02;;;;;;;18.87;9.97;;;;;;;6.25;76.61;100896.15;2151100;82;21132;-88
2022/02/09 19:03:27;;;;;;;16.97;8.78;;;;;;;6.24;76.61;100897.09;2153246;81;21085;-83
2022/02/09 19:06:27;;;;;;;12.98;8.38;;;;;;;6.22;76.48;100896.84;2149431;82;21042;-87
2022/02/09 19:16:07;;;;;;;17.02;9.28;;;;;;;6.22;76.56;100900.80;2150539;82;20979;-85
2022/02/09 19:48:50;;;;;;;20.15;10.68;;;;;;;6.21;76.22;100897.81;2154483;82;21026;-86
2022/02/09 19:52:04;;;;;;;19.95;9.95;;;;;;;6.22;76.28;100887.63;2151334;82;21026;-82
2022/02/09 19:58:13;;;;;;;19.40;9.58;;;;;;;6.20;76.28;100887.77;2150864;82;21031;-85
2022/02/09 20:01:17;;;;;;;15.03;9.00;;;;;;;6.20;76.19;100889.56;2148090;82;21034;-87
2022/02/09 20:04:19;;;;;;;18.32;9.30;;;;;;;6.19;76.21;100888.70;2147062;82;21002;-84
2022/02/09 20:07:20;;;;;;;16.65;9.33;;;;;;;6.21;76.17;100894.70;2154375;82;21057;-85
2022/02/09 20:10:23;;;;;;;17.55;9.70;;;;;;;6.21;76.19;100890.74;2146516;80;21035;-85
2022/02/09 20:13:24;;;;;;;19.60;10.23;;;;;;;6.22;76.20;100900.34;2148502;80;21030;-85
2022/02/09 20:16:26;;;;;;;25.02;13.03;;;;;;;6.24;76.22;100893.14;2128047;82;20951;-87
2022/02/09 20:19:27;;;;;;;26.00;14.30;;;;;;;6.25;76.16;100897.47;2152014;82;21037;-85
2022/02/09 20:22:29;;;;;;;37.73;19.57;;;;;;;6.22;76.16;100902.12;2150293;82;21450;-86
2022/02/09 20:25:31;;;;;;;44.38;22.58;;;;;;;6.22;76.21;100902.12;2156321;82;21013;-84
2022/02/09 20:28:33;;;;;;;29.25;14.43;;;;;;;6.21;76.21;100895.19;2125021;82;20978;-81
2022/02/09 20:31:44;;;;;;;16.85;9.63;;;;;;;6.18;76.17;100893.63;2150960;82;21109;-84
2022/02/09 20:34:47;;;;;;;21.02;9.88;;;;;;;6.18;76.19;100896.25;2145252;82;20998;-82
2022/02/09 20:37:46;;;;;;;15.72;9.10;;;;;;;6.18;76.20;100894.94;2152256;82;21026;-82
2022/02/09 20:41:01;;;;;;;18.30;9.93;;;;;;;6.18;76.25;100888.34;2150694;82;21085;-84
2022/02/09 20:44:19;;;;;;;18.52;10.28;;;;;;;6.19;76.21;100891.33;2154282;82;21045;-82
2022/02/09 20:47:00;;;;;;;17.32;10.00;;;;;;;6.18;76.25;100891.47;2146888;82;20987;-84
2022/02/09 20:50:02;;;;;;;19.30;10.35;;;;;;;6.17;76.31;100889.80;2148616;82;21069;-84
2022/02/09 20:53:03;;;;;;;20.02;10.43;;;;;;;6.15;76.28;100887.77;2149815;82;21064;-87
2022/02/09 20:56:05;;;;;;;23.55;11.20;;;;;;;6.14;76.30;100895.28;2147197;82;21039;-86
2022/02/09 20:59:10;;;;;;;17.02;10.48;;;;;;;6.10;76.33;100892.55;2151821;82;21522;-86
2022/02/09 21:03:03;;;;;;;19.23;9.85;;;;;;;6.09;76.37;100900.09;2145051;82;21014;-85
2022/02/09 21:05:30;;;;;;;18.30;9.88;;;;;;;6.08;76.39;100899.72;2146164;82;21042;-86
2022/02/09 21:08:35;;;;;;;19.80;10.55;;;;;;;6.07;76.40;100897.56;2151750;82;21073;-85
2022/02/09 21:18:32;;;;;;;30.68;14.90;;;;;;;6.09;76.44;100898.30;2147390;82;21014;-85
2022/02/09 21:29:06;;;;;;;29.37;16.62;;;;;;;6.06;76.48;100898.05;2144649;82;21078;-86
2022/02/09 21:44:44;;;;;;;17.23;8.93;;;;;;;5.99;76.58;100896.83;2150592;82;21056;-85
2022/02/09 21:51:45;;;;;;;16.93;8.70;;;;;;;6.02;76.60;100884.73;2155992;82;21013;-85
2022/02/09 21:53:48;;;;;;;17.98;9.23;;;;;;;6.02;76.56;100893.12;2142414;82;21322;-85
2022/02/09 22:00:18;;;;;;;16.97;9.95;;;;;;;5.94;76.47;100890.23;2151048;82;21057;-86
2022/02/09 22:16:42;;;;;;;16.15;9.15;;;;;;;5.85;76.62;100871.52;2126730;82;21026;-84
2022/02/09 22:19:55;;;;;;;17.35;9.43;;;;;;;5.83;76.51;100876.09;2139598;82;21089;-82
2022/02/09 22:22:41;;;;;;;19.02;10.53;;;;;;;5.82;76.59;100877.02;2152652;82;21021;-85
2022/02/09 22:32:31;;;;;;;23.10;11.12;;;;;;;5.76;76.57;100877.50;2155452;82;21050;-83
2022/02/09 22:48:48;;;;;;;21.25;12.28;;;;;;;5.82;76.84;100877.51;2154270;82;20975;-85
2022/02/09 22:54:44;;;;;;;29.60;12.78;;;;;;;5.90;76.81;100870.34;2125474;82;20991;-85
2022/02/09 22:57:53;;;;;;;27.02;12.75;;;;;;;5.91;76.80;100875.96;2146217;82;21039;-85
2022/02/09 23:13:46;;;;;;;22.32;12.30;;;;;;;5.91;76.84;100871.52;2105460;82;21126;-84
